createdAt,value
2022-10-07T00:01:51.394Z,101707.27
2022-10-07T00:04:21.262Z,101700.33
2022-10-07T00:06:51.478Z,101696.78
2022-10-07T00:09:20.999Z,101698.65
2022-10-07T00:11:51.100Z,101695.09
2022-10-07T00:14:20.619Z,101695.09
2022-10-07T00:16:50.599Z,101701.31
2022-10-07T00:19:21.351Z,101697.45
2022-10-07T00:21:51.576Z,101693.15
2022-10-07T00:24:21.095Z,101699.37
2022-10-07T00:26:50.985Z,101698.13
2022-10-07T00:29:20.706Z,101693.38
2022-10-07T00:31:57.057Z,101690.87
2022-10-07T00:34:24.575Z,101695.32
2022-10-07T00:36:54.419Z,101691.84
2022-10-07T00:39:24.380Z,101691.16
2022-10-07T00:41:54.261Z,101694.16
2022-10-07T00:44:29.576Z,101692.52
2022-10-07T00:47:26.781Z,101691.80
2022-10-07T00:50:12.933Z,101691.80
2022-10-07T00:52:51.544Z,101689.62
2022-10-07T00:55:24.475Z,101687.52
2022-10-07T00:57:57.865Z,101683.73
2022-10-07T01:00:27.797Z,101683.77
2022-10-07T01:02:57.649Z,101683.88
2022-10-07T01:05:27.777Z,101685.02
2022-10-07T01:08:01.798Z,101683.64
2022-10-07T01:10:34.620Z,101677.20
2022-10-07T01:13:14.717Z,101675.48
2022-10-07T01:15:48.599Z,101672.06
2022-10-07T01:18:21.533Z,101671.20
2022-10-07T01:21:06.160Z,101672.17
2022-10-07T01:23:56.209Z,101666.55
2022-10-07T01:26:46.115Z,101666.55
2022-10-07T01:29:43.259Z,101662.73
2022-10-07T01:32:17.419Z,101655.36
2022-10-07T01:34:50.220Z,101654.08
2022-10-07T01:37:22.897Z,101654.08
2022-10-07T01:39:55.857Z,101652.33
2022-10-07T01:42:27.149Z,101648.95
2022-10-07T01:44:59.643Z,101648.91
2022-10-07T01:47:30.533Z,101649.81
2022-10-07T01:50:00.564Z,101647.67
2022-10-07T01:52:48.400Z,101645.05
2022-10-07T01:55:37.507Z,101641.61
2022-10-07T01:58:13.860Z,101638.17
2022-10-07T02:00:49.503Z,101637.78
2022-10-07T02:03:37.536Z,101636.06
2022-10-07T02:06:13.585Z,101629.17
2022-10-07T02:08:53.379Z,101623.19
2022-10-07T02:11:27.310Z,101622.70
2022-10-07T02:14:02.251Z,101621.05
2022-10-07T02:16:46.619Z,101620.08
2022-10-07T02:19:23.083Z,101614.84
2022-10-07T02:21:57.132Z,101619.59
2022-10-07T02:24:30.392Z,101620.08
2022-10-07T02:27:03.824Z,101621.48
2022-10-07T02:29:36.699Z,101626.58
2022-10-07T02:32:10.246Z,101618.80
2022-10-07T02:34:43.553Z,101614.45
2022-10-07T02:37:19.250Z,101610.34
2022-10-07T02:39:49.813Z,101613.09
2022-10-07T02:42:34.561Z,101606.42
2022-10-07T02:45:16.621Z,101606.55
2022-10-07T02:47:52.663Z,101602.76
2022-10-07T02:50:25.616Z,101601.03
2022-10-07T02:52:58.488Z,101603.30
2022-10-07T02:55:30.785Z,101603.30
2022-10-07T02:58:03.625Z,101597.72
2022-10-07T03:00:36.617Z,101602.02
2022-10-07T03:03:06.829Z,101602.02
2022-10-07T03:05:41.952Z,101588.16
2022-10-07T03:08:13.509Z,101588.16
2022-10-07T03:10:44.070Z,101588.63
2022-10-07T03:13:15.560Z,101584.33
2022-10-07T03:15:47.043Z,101591.24
2022-10-07T03:18:28.493Z,101590.48
2022-10-07T03:21:01.312Z,101591.78
2022-10-07T03:23:31.383Z,101592.33
2022-10-07T03:26:01.697Z,101580.05
2022-10-07T03:28:35.582Z,101580.05
2022-10-07T03:31:09.713Z,101588.84
2022-10-07T03:33:41.248Z,101586.65
2022-10-07T03:36:11.355Z,101583.20
2022-10-07T03:38:42.410Z,101578.52
2022-10-07T03:41:12.747Z,101581.16
2022-10-07T03:43:42.589Z,101576.91
2022-10-07T03:46:12.340Z,101582.91
2022-10-07T03:48:42.362Z,101574.14
2022-10-07T03:51:12.591Z,101572.25
2022-10-07T03:53:42.925Z,101571.39
2022-10-07T03:56:13.276Z,101566.82
2022-10-07T03:58:44.140Z,101566.82
2022-10-07T04:01:17.996Z,101558.36
2022-10-07T04:03:49.567Z,101558.36
2022-10-07T04:06:20.115Z,101555.72
2022-10-07T04:08:56.462Z,101555.72
2022-10-07T04:11:26.673Z,101556.55
2022-10-07T04:13:58.961Z,101552.24
2022-10-07T04:16:29.272Z,101551.35
2022-10-07T04:18:59.320Z,101550.94
2022-10-07T04:21:29.740Z,101533.30
2022-10-07T04:23:59.522Z,101533.30
2022-10-07T04:26:29.570Z,101543.98
2022-10-07T04:29:00.185Z,101544.46
2022-10-07T04:31:30.654Z,101536.68
2022-10-07T04:34:02.512Z,101537.57
2022-10-07T04:36:33.709Z,101535.82
2022-10-07T04:39:04.939Z,101527.59
2022-10-07T04:41:36.622Z,101525.88
2022-10-07T04:44:08.215Z,101522.11
2022-10-07T04:46:41.013Z,101519.94
2022-10-07T04:49:12.555Z,101518.60
2022-10-07T04:51:42.417Z,101523.00
2022-10-07T04:54:12.440Z,101526.44
2022-10-07T04:56:50.460Z,101524.33
2022-10-07T04:59:23.966Z,101520.00
2022-10-07T05:01:53.486Z,101521.75
2022-10-07T05:04:24.025Z,101521.75
2022-10-07T05:06:54.530Z,101529.02
2022-10-07T05:09:24.269Z,101520.08
2022-10-07T05:11:56.820Z,101523.61
2022-10-07T05:14:26.671Z,101524.89
2022-10-07T05:16:57.522Z,101532.75
2022-10-07T05:19:29.013Z,101522.81
2022-10-07T05:21:59.437Z,101522.81
2022-10-07T05:24:29.957Z,101523.42
2022-10-07T05:26:59.738Z,101518.97
2022-10-07T05:29:29.653Z,101514.50
2022-10-07T05:32:04.836Z,101521.47
2022-10-07T05:34:31.352Z,101515.33
2022-10-07T05:37:01.496Z,101515.22
2022-10-07T05:39:31.348Z,101510.77
2022-10-07T05:42:02.900Z,101512.28
2022-10-07T05:44:34.437Z,101509.48
2022-10-07T05:47:06.757Z,101512.30
2022-10-07T05:49:36.785Z,101503.79
2022-10-07T05:52:07.724Z,101502.16
2022-10-07T05:54:37.673Z,101505.33
2022-10-07T05:57:07.351Z,101498.34
2022-10-07T05:59:37.200Z,101499.83
2022-10-07T06:02:07.610Z,101497.53
2022-10-07T06:04:38.410Z,101497.14
2022-10-07T06:07:08.383Z,101499.61
2022-10-07T06:09:56.255Z,101492.38
2022-10-07T06:12:43.821Z,101493.01
2022-10-07T06:15:15.055Z,101490.02
2022-10-07T06:17:47.369Z,101488.69
2022-10-07T06:20:19.089Z,101492.64
2022-10-07T06:22:50.066Z,101492.64
2022-10-07T06:25:20.944Z,101492.72
2022-10-07T06:27:54.158Z,101493.20
2022-10-07T06:30:22.581Z,101490.97
2022-10-07T06:32:52.591Z,101491.52
2022-10-07T06:35:23.567Z,101489.73
2022-10-07T06:37:54.330Z,101486.38
2022-10-07T06:40:24.485Z,101485.88
2022-10-07T06:42:54.841Z,101480.70
2022-10-07T06:45:33.764Z,101479.47
2022-10-07T06:48:03.942Z,101478.94
2022-10-07T06:50:33.728Z,101484.34
2022-10-07T06:53:03.778Z,101474.70
2022-10-07T06:55:34.308Z,101476.62
2022-10-07T06:58:09.092Z,101476.64
2022-10-07T07:00:35.456Z,101471.88
2022-10-07T07:03:06.676Z,101470.48
2022-10-07T07:05:44.554Z,101476.35
2022-10-07T07:08:13.658Z,101472.85
2022-10-07T07:10:45.141Z,101467.72
2022-10-07T07:13:15.950Z,101465.44
2022-10-07T07:15:57.669Z,101459.47
2022-10-07T07:18:27.870Z,101452.39
2022-10-07T07:20:59.116Z,101452.39
2022-10-07T07:23:28.985Z,101454.88
2022-10-07T07:26:00.554Z,101453.56
2022-10-07T07:28:31.353Z,101446.56
2022-10-07T07:31:01.589Z,101445.79
2022-10-07T07:33:31.410Z,101434.98
2022-10-07T07:36:01.205Z,101433.53
2022-10-07T07:38:31.336Z,101424.48
2022-10-07T07:41:06.463Z,101428.25
2022-10-07T07:43:36.392Z,101426.48
2022-10-07T07:46:07.065Z,101422.45
2022-10-07T07:48:38.106Z,101418.38
2022-10-07T07:51:08.474Z,101417.33
2022-10-07T07:53:39.341Z,101408.75
2022-10-07T07:56:10.341Z,101413.13
2022-10-07T07:58:40.451Z,101400.42
2022-10-07T08:01:13.604Z,101401.03
2022-10-07T08:03:46.381Z,101397.55
2022-10-07T08:06:18.961Z,101390.84
2022-10-07T08:08:51.325Z,101380.31
2022-10-07T08:11:22.211Z,101378.97
2022-10-07T08:13:52.268Z,101376.17
2022-10-07T08:16:24.957Z,101370.69
2022-10-07T08:18:57.026Z,101367.41
2022-10-07T08:21:30.919Z,101367.41
2022-10-07T08:24:02.677Z,101359.05
2022-10-07T08:26:37.295Z,101360.58
2022-10-07T08:29:08.710Z,101363.59
2022-10-07T08:31:38.594Z,101360.20
2022-10-07T08:34:12.467Z,101353.80
2022-10-07T08:36:44.366Z,101352.92
2022-10-07T08:39:15.203Z,101349.44
2022-10-07T08:41:48.145Z,101355.59
2022-10-07T08:44:26.458Z,101349.47
2022-10-07T08:47:08.315Z,101341.31
2022-10-07T08:49:56.203Z,101341.56
2022-10-07T08:52:38.784Z,101335.79
2022-10-07T08:55:26.519Z,101337.00
2022-10-07T08:58:03.619Z,101331.67
2022-10-07T09:00:54.787Z,101335.62
2022-10-07T09:03:41.704Z,101330.73
2022-10-07T09:06:14.433Z,101331.45
2022-10-07T09:08:47.578Z,101324.66
2022-10-07T09:11:22.101Z,101317.72
2022-10-07T09:14:04.419Z,101309.48
2022-10-07T09:16:37.417Z,101313.23
2022-10-07T09:19:09.137Z,101307.08
2022-10-07T09:21:42.473Z,101310.08
2022-10-07T09:24:24.562Z,101303.88
2022-10-07T09:26:57.963Z,101300.78
2022-10-07T09:29:30.778Z,101299.79
2022-10-07T09:32:00.626Z,101292.62
2022-10-07T09:34:32.263Z,101287.89
2022-10-07T09:37:23.246Z,101287.17
2022-10-07T09:39:54.895Z,101280.38
2022-10-07T09:42:36.401Z,101275.47
2022-10-07T09:45:10.302Z,101267.84
2022-10-07T09:47:42.091Z,101258.31
2022-10-07T09:50:34.300Z,101263.29
2022-10-07T09:53:06.654Z,101256.61
2022-10-07T09:55:41.803Z,101259.52
2022-10-07T09:58:31.929Z,101252.80
2022-10-07T10:01:04.583Z,101242.20
2022-10-07T10:03:37.425Z,101236.40
2022-10-07T10:06:09.388Z,101233.94
2022-10-07T10:08:42.488Z,101239.59
2022-10-07T10:11:25.828Z,101220.41
2022-10-07T10:13:55.934Z,101230.97
2022-10-07T10:16:39.697Z,101234.48
2022-10-07T10:19:31.538Z,101212.68
2022-10-07T10:22:00.738Z,101212.68
2022-10-07T10:24:50.580Z,101227.44
2022-10-07T10:27:29.511Z,101217.58
2022-10-07T10:30:07.211Z,101207.14
2022-10-07T10:32:46.333Z,101197.93
2022-10-07T10:35:22.399Z,101198.98
2022-10-07T10:38:01.236Z,101189.85
2022-10-07T10:40:43.012Z,101189.23
2022-10-07T10:43:27.814Z,101186.68
2022-10-07T10:46:16.065Z,101187.61
2022-10-07T10:48:55.135Z,101186.76
2022-10-07T10:51:29.603Z,101177.27
2022-10-07T10:54:28.501Z,101172.78
2022-10-07T10:57:14.925Z,101158.95
2022-10-07T11:00:12.804Z,101158.83
2022-10-07T11:03:04.496Z,101158.98
2022-10-07T11:05:40.285Z,101147.88
2022-10-07T11:08:18.692Z,101138.63
2022-10-07T11:11:21.527Z,101133.70
2022-10-07T11:14:03.587Z,101121.57
2022-10-07T11:16:47.787Z,101120.02
2022-10-07T11:19:29.014Z,101113.62
2022-10-07T11:22:01.264Z,101106.83
2022-10-07T11:24:53.684Z,101106.22
2022-10-07T11:27:29.282Z,101102.75
2022-10-07T11:30:11.223Z,101090.75
2022-10-07T11:32:44.770Z,101094.41
2022-10-07T11:35:35.637Z,101087.80
2022-10-07T11:38:21.242Z,101083.54
2022-10-07T11:41:05.845Z,101073.86
2022-10-07T11:43:45.277Z,101070.20
2022-10-07T11:46:21.007Z,101033.69
2022-10-07T11:49:11.685Z,101033.69
2022-10-07T11:51:59.120Z,101051.92
2022-10-07T11:54:31.994Z,101046.63
2022-10-07T11:57:02.584Z,101039.20
2022-10-07T11:59:48.181Z,101033.17
2022-10-07T12:02:32.898Z,101025.30
2022-10-07T12:05:03.523Z,101023.73
2022-10-07T12:07:42.136Z,101019.28
2022-10-07T12:10:22.097Z,101015.11
2022-10-07T12:12:54.957Z,101006.61
2022-10-07T12:15:33.861Z,101001.31
2022-10-07T12:18:10.590Z,100999.13
2022-10-07T12:20:53.980Z,100989.76
2022-10-07T12:23:26.660Z,100990.41
2022-10-07T12:26:01.307Z,100987.26
2022-10-07T12:28:45.446Z,100985.00
2022-10-07T12:31:22.752Z,100979.27
2022-10-07T12:34:08.592Z,100974.39
2022-10-07T12:36:40.958Z,100972.87
2022-10-07T12:39:13.851Z,100966.79
2022-10-07T12:41:47.749Z,100968.16
2022-10-07T12:44:34.308Z,100947.50
2022-10-07T12:47:18.200Z,100935.27
2022-10-07T12:49:54.537Z,100935.27
2022-10-07T12:52:27.431Z,100948.89
2022-10-07T12:55:03.406Z,100941.31
2022-10-07T12:57:42.515Z,100938.45
2022-10-07T13:00:15.511Z,100932.67
2022-10-07T13:03:22.118Z,100931.72
2022-10-07T13:06:11.424Z,100931.27
2022-10-07T13:09:02.839Z,100917.64
2022-10-07T13:11:47.822Z,100916.36
2022-10-07T13:14:28.114Z,100913.11
2022-10-07T13:17:28.198Z,100907.83
2022-10-07T13:20:04.090Z,100903.45
2022-10-07T13:22:34.311Z,100899.23
2022-10-07T13:25:07.330Z,100889.48
2022-10-07T13:27:41.012Z,100889.88
2022-10-07T13:30:13.881Z,100883.16
2022-10-07T13:32:44.055Z,100876.84
2022-10-07T13:35:27.569Z,100877.05
2022-10-07T13:37:57.498Z,100872.39
2022-10-07T13:40:31.744Z,100860.86
2022-10-07T13:43:03.892Z,100858.20
2022-10-07T13:45:36.756Z,100854.09
2022-10-07T13:48:07.040Z,100855.95
2022-10-07T13:50:38.028Z,100848.13
2022-10-07T13:53:09.335Z,100847.39
2022-10-07T13:55:39.210Z,100832.59
2022-10-07T13:58:10.648Z,100827.98
2022-10-07T14:00:43.796Z,100826.33
2022-10-07T14:03:19.213Z,100817.40
2022-10-07T14:05:51.940Z,100815.00
2022-10-07T14:08:30.457Z,100814.44
2022-10-07T14:11:09.145Z,100811.06
2022-10-07T14:13:39.117Z,100801.70
2022-10-07T14:16:12.069Z,100803.09
2022-10-07T14:18:44.202Z,100795.70
2022-10-07T14:21:15.583Z,100797.33
2022-10-07T14:23:49.787Z,100800.55
2022-10-07T14:26:19.382Z,100794.48
2022-10-07T14:28:49.696Z,100782.34
2022-10-07T14:31:39.583Z,100781.00
2022-10-07T14:34:33.193Z,100777.06
2022-10-07T14:37:11.532Z,100769.17
2022-10-07T14:39:49.154Z,100769.17
2022-10-07T14:42:27.891Z,100764.75
2022-10-07T14:44:58.934Z,100760.24
2022-10-07T14:47:31.457Z,100759.84
2022-10-07T14:50:02.456Z,100753.45
2022-10-07T14:52:51.936Z,100751.12
2022-10-07T14:55:25.835Z,100737.44
2022-10-07T14:57:56.698Z,100739.35
2022-10-07T15:00:38.715Z,100735.59
2022-10-07T15:03:06.133Z,100735.75
2022-10-07T15:05:35.909Z,100728.20
2022-10-07T15:08:06.936Z,100723.25
2022-10-07T15:10:36.755Z,100724.35
2022-10-07T15:13:12.376Z,100717.20
2022-10-07T15:15:44.517Z,100718.00
2022-10-07T15:18:14.462Z,100714.33
2022-10-07T15:20:44.115Z,100716.01
2022-10-07T15:23:15.394Z,100717.64
2022-10-07T15:25:45.649Z,100720.87
2022-10-07T15:28:17.184Z,100719.97
2022-10-07T15:30:47.103Z,100718.68
2022-10-07T15:33:16.844Z,100715.16
2022-10-07T15:35:46.712Z,100713.97
2022-10-07T15:38:16.228Z,100705.45
2022-10-07T15:40:57.407Z,100706.07
2022-10-07T15:43:27.328Z,100705.09
2022-10-07T15:45:58.947Z,100703.95
2022-10-07T15:48:29.685Z,100704.33
2022-10-07T15:50:59.255Z,100703.05
2022-10-07T15:53:29.045Z,100697.30
2022-10-07T15:55:59.625Z,100697.13
2022-10-07T15:58:32.355Z,100692.67
2022-10-07T16:01:04.809Z,100694.23
2022-10-07T16:03:40.545Z,100702.59
2022-10-07T16:06:13.273Z,100688.64
2022-10-07T16:08:42.994Z,100694.64
2022-10-07T16:11:14.115Z,100695.18
2022-10-07T16:13:47.032Z,100693.92
2022-10-07T16:16:20.333Z,100688.52
2022-10-07T16:18:52.064Z,100684.61
2022-10-07T16:21:24.850Z,100682.31
2022-10-07T16:23:57.918Z,100684.53
2022-10-07T16:26:30.288Z,100683.02
2022-10-07T16:29:19.589Z,100683.02
2022-10-07T16:31:54.558Z,100683.70
2022-10-07T16:34:21.734Z,100685.19
2022-10-07T16:36:52.198Z,100683.63
2022-10-07T16:39:22.187Z,100683.56
2022-10-07T16:41:52.909Z,100673.23
2022-10-07T16:44:23.487Z,100676.39
2022-10-07T16:46:55.113Z,100676.77
2022-10-07T16:49:26.261Z,100676.77
2022-10-07T16:51:56.456Z,100671.99
2022-10-07T16:54:28.635Z,100679.15
2022-10-07T16:56:58.551Z,100680.13
2022-10-07T16:59:28.449Z,100674.74
2022-10-07T17:02:00.266Z,100671.50
2022-10-07T17:04:30.241Z,100668.11
2022-10-07T17:07:00.043Z,100668.48
2022-10-07T17:09:29.833Z,100664.05
2022-10-07T17:11:59.647Z,100667.45
2022-10-07T17:14:31.676Z,100665.88
2022-10-07T17:17:01.737Z,100665.14
2022-10-07T17:19:31.858Z,100660.55
2022-10-07T17:22:01.411Z,100659.09
2022-10-07T17:24:31.507Z,100654.67
2022-10-07T17:27:01.289Z,100656.73
2022-10-07T17:29:32.725Z,100657.45
2022-10-07T17:32:01.765Z,100650.05
2022-10-07T17:34:32.523Z,100646.91
2022-10-07T17:37:02.300Z,100645.12
2022-10-07T17:39:32.159Z,100646.09
2022-10-07T17:42:01.911Z,100645.25
2022-10-07T17:44:34.238Z,100642.47
2022-10-07T17:47:04.218Z,100637.03
2022-10-07T17:49:34.032Z,100643.80
2022-10-07T17:52:03.846Z,100636.30
2022-10-07T17:54:33.622Z,100642.59
2022-10-07T17:57:04.348Z,100634.13
2022-10-07T17:59:34.770Z,100634.13
2022-10-07T18:02:05.358Z,100634.00
2022-10-07T18:04:35.256Z,100623.02
2022-10-07T18:07:05.081Z,100628.72
2022-10-07T18:09:34.869Z,100624.58
2022-10-07T18:12:22.708Z,100625.20
2022-10-07T18:15:10.185Z,100623.87
2022-10-07T18:17:40.265Z,100619.28
2022-10-07T18:20:14.981Z,100622.89
2022-10-07T18:22:44.167Z,100618.42
2022-10-07T18:25:13.742Z,100617.21
2022-10-07T18:27:43.948Z,100613.47
2022-10-07T18:30:13.883Z,100613.47
2022-10-07T18:32:43.761Z,100610.20
2022-10-07T18:35:13.493Z,100607.31
2022-10-07T18:37:43.742Z,100605.73
2022-10-07T18:40:13.567Z,100607.55
2022-10-07T18:42:43.422Z,100608.52
2022-10-07T18:45:13.237Z,100605.24
2022-10-07T18:47:43.230Z,100600.66
2022-10-07T18:50:12.902Z,100606.45
2022-10-07T18:52:42.679Z,100603.63
2022-10-07T18:55:12.447Z,100599.02
2022-10-07T18:57:42.343Z,100597.80
2022-10-07T19:00:12.584Z,100595.97
2022-10-07T19:02:43.706Z,100589.06
2022-10-07T19:05:13.680Z,100587.08
2022-10-07T19:07:43.796Z,100585.28
2022-10-07T19:10:13.727Z,100585.03
2022-10-07T19:13:00.888Z,100581.52
2022-10-07T19:15:30.969Z,100585.13
2022-10-07T19:18:01.792Z,100579.39
2022-10-07T19:20:32.549Z,100583.65
2022-10-07T19:23:02.052Z,100585.84
2022-10-07T19:25:47.109Z,100582.47
2022-10-07T19:28:17.004Z,100582.47
2022-10-07T19:30:46.812Z,100583.36
2022-10-07T19:33:16.925Z,100583.77
2022-10-07T19:35:47.262Z,100578.34
2022-10-07T19:38:17.017Z,100576.30
2022-10-07T19:40:46.796Z,100581.12
2022-10-07T19:43:16.754Z,100581.06
2022-10-07T19:45:47.179Z,100574.42
2022-10-07T19:48:16.699Z,100577.33
2022-10-07T19:50:46.573Z,100573.34
2022-10-07T19:53:16.785Z,100574.32
2022-10-07T19:55:46.862Z,100564.42
2022-10-07T19:58:17.279Z,100569.73
2022-10-07T20:00:47.495Z,100571.42
2022-10-07T20:03:17.004Z,100567.59
2022-10-07T20:05:46.866Z,100563.73
2022-10-07T20:08:16.730Z,100569.41
2022-10-07T20:10:46.585Z,100566.63
2022-10-07T20:13:17.544Z,100564.70
2022-10-07T20:15:47.342Z,100569.25
2022-10-07T20:18:17.786Z,100568.28
2022-10-07T20:20:47.683Z,100560.19
2022-10-07T20:23:17.464Z,100559.45
2022-10-07T20:25:47.927Z,100555.95
2022-10-07T20:28:17.468Z,100551.59
2022-10-07T20:30:47.316Z,100549.02
2022-10-07T20:33:17.112Z,100546.86
2022-10-07T20:35:47.486Z,100544.69
2022-10-07T20:38:17.298Z,100539.48
2022-10-07T20:41:06.269Z,100545.16
2022-10-07T20:43:36.045Z,100538.27
2022-10-07T20:46:06.761Z,100543.34
2022-10-07T20:48:36.570Z,100541.13
2022-10-07T20:51:10.302Z,100543.05
2022-10-07T20:53:39.843Z,100541.09
2022-10-07T20:56:09.659Z,100536.38
2022-10-07T20:58:39.807Z,100536.38
2022-10-07T21:01:10.037Z,100536.00
2022-10-07T21:03:39.818Z,100534.92
2022-10-07T21:06:09.685Z,100534.17
2022-10-07T21:08:39.484Z,100535.59
2022-10-07T21:11:09.044Z,100524.73
2022-10-07T21:13:38.971Z,100524.73
2022-10-07T21:16:08.656Z,100532.06
2022-10-07T21:18:38.536Z,100530.38
2022-10-07T21:21:09.665Z,100527.45
2022-10-07T21:23:40.029Z,100531.35
2022-10-07T21:26:09.807Z,100522.90
2022-10-07T21:28:40.217Z,100527.80
2022-10-07T21:31:14.550Z,100525.89
2022-10-07T21:33:47.020Z,100519.72
2022-10-07T21:36:19.269Z,100509.55
2022-10-07T21:38:52.106Z,100506.83
2022-10-07T21:41:29.725Z,100505.59
2022-10-07T21:44:00.869Z,100505.20
2022-10-07T21:46:32.361Z,100505.20
2022-10-07T21:49:02.160Z,100503.59
2022-10-07T21:51:32.306Z,100512.43
2022-10-07T21:54:03.155Z,100502.77
2022-10-07T21:56:34.725Z,100501.05
2022-10-07T21:59:04.309Z,100500.30
2022-10-07T22:01:35.502Z,100495.11
2022-10-07T22:04:06.061Z,100495.11
2022-10-07T22:06:53.473Z,100492.45
2022-10-07T22:09:22.971Z,100488.72
2022-10-07T22:11:52.838Z,100487.52
2022-10-07T22:14:22.743Z,100482.77
2022-10-07T22:16:52.614Z,100491.14
2022-10-07T22:19:22.994Z,100487.97
2022-10-07T22:21:52.843Z,100483.39
2022-10-07T22:24:24.356Z,100482.84
2022-10-07T22:26:53.903Z,100471.95
2022-10-07T22:29:25.244Z,100478.07
2022-10-07T22:31:55.491Z,100479.52
2022-10-07T22:34:44.351Z,100479.52
2022-10-07T22:37:13.860Z,100477.14
2022-10-07T22:39:43.744Z,100481.84
2022-10-07T22:42:13.257Z,100476.58
2022-10-07T22:44:43.343Z,100474.30
2022-10-07T22:47:12.989Z,100470.73
2022-10-07T22:49:42.853Z,100471.50
2022-10-07T22:52:12.354Z,100468.73
2022-10-07T22:54:42.151Z,100472.72
2022-10-07T22:57:11.720Z,100468.03
2022-10-07T22:59:41.514Z,100466.34
2022-10-07T23:02:11.228Z,100463.08
2022-10-07T23:04:40.992Z,100464.41
2022-10-07T23:07:10.919Z,100463.59
2022-10-07T23:09:40.701Z,100459.84
2022-10-07T23:12:10.688Z,100466.83
2022-10-07T23:14:41.186Z,100461.52
2022-10-07T23:17:10.756Z,100460.45
2022-10-07T23:19:40.611Z,100462.03
2022-10-07T23:22:10.570Z,100465.75
2022-10-07T23:24:40.844Z,100462.69
2022-10-07T23:27:10.723Z,100457.37
2022-10-07T23:29:40.603Z,100458.42
2022-10-07T23:32:10.332Z,100458.42
2022-10-07T23:34:40.592Z,100461.78
2022-10-07T23:37:10.447Z,100464.56
2022-10-07T23:39:40.239Z,100454.28
2022-10-07T23:42:09.752Z,100455.49
2022-10-07T23:44:39.558Z,100458.59
2022-10-07T23:47:09.374Z,100454.88
2022-10-07T23:49:39.166Z,100451.73
2022-10-07T23:52:09.651Z,100449.41
2022-10-07T23:54:40.093Z,100449.41
2022-10-07T23:57:09.894Z,100444.45
2022-10-07T23:59:39.695Z,100442.98
